Time;durP1;ratioP1;P1;durP2;ratioP2;P2;SDS_P1;SDS_P2;PMS_P1;PMS_P2;Temp;Humidity;BMP_temperature;BMP_pressure;BME280_temperature;BME280_humidity;BME280_pressure;Samples;Min_cycle;Max_cycle;Signal;HPM_P1;HPM_P2
2022/04/09 00:01:20;;;;;;;4.50;3.80;;;1.70;99.90;;;-146.41;100.00;57768.22;4997500;28;20097;-72
2022/04/09 00:03:47;;;;;;;6.65;4.70;;;1.70;99.90;;;-146.41;100.00;57768.22;4998168;28;20042;-71
2022/04/09 00:06:14;;;;;;;7.80;4.95;;;1.70;99.90;;;-146.41;100.00;57768.22;4995953;28;20482;-72
2022/04/09 00:08:41;;;;;;;9.10;5.00;;;1.70;99.90;;;-146.41;100.00;57768.22;5000554;28;20137;-72
2022/04/09 00:11:08;;;;;;;7.05;4.90;;;1.70;99.90;;;-146.41;100.00;57768.22;4999026;28;20728;-72
2022/04/09 00:13:37;;;;;;;7.30;4.47;;;1.60;99.90;;;-146.41;100.00;57768.22;4997483;28;20574;-72
2022/04/09 00:16:04;;;;;;;6.57;4.05;;;1.70;99.90;;;-146.41;100.00;57768.22;4999186;28;20456;-73
2022/04/09 00:18:31;;;;;;;5.32;3.97;;;1.60;99.90;;;-146.41;100.00;57768.22;4997000;28;20523;-71
2022/04/09 00:20:58;;;;;;;8.35;5.85;;;1.60;99.90;;;-146.41;100.00;57768.22;4998991;28;20047;-72
2022/04/09 00:23:25;;;;;;;6.55;4.50;;;1.70;99.90;;;-146.41;100.00;57768.22;4999702;28;20119;-71
2022/04/09 00:25:52;;;;;;;9.63;5.70;;;1.60;99.90;;;-146.41;100.00;57768.22;4996247;28;20082;-71
2022/04/09 00:28:19;;;;;;;5.78;4.70;;;1.60;99.90;;;-146.41;100.00;57768.22;5000900;28;20042;-70
2022/04/09 00:30:46;;;;;;;9.77;5.60;;;1.60;99.90;;;-146.41;100.00;57768.22;4998747;28;20461;-72
2022/04/09 00:33:13;;;;;;;7.45;5.25;;;1.60;99.90;;;-146.41;100.00;57768.22;5001689;28;20625;-71
2022/04/09 00:35:40;;;;;;;8.15;5.47;;;1.60;99.90;;;-146.41;100.00;57768.22;4994935;28;20135;-71
2022/04/09 00:38:07;;;;;;;7.07;5.00;;;1.60;99.90;;;-146.41;100.00;57768.22;4998534;28;20042;-71
2022/04/09 00:40:34;;;;;;;8.27;5.53;;;1.60;99.90;;;-146.41;100.00;57768.22;4996953;28;20131;-72
2022/04/09 00:43:01;;;;;;;9.05;5.20;;;1.60;99.90;;;-146.41;100.00;57768.22;4997750;28;20919;-71
2022/04/09 00:45:28;;;;;;;8.38;5.72;;;1.70;99.90;;;-146.41;100.00;57768.22;5000992;28;20069;-71
2022/04/09 00:47:56;;;;;;;9.00;6.60;;;1.60;99.90;;;-146.41;100.00;57768.22;5002176;28;20168;-70
2022/04/09 00:50:23;;;;;;;9.95;5.72;;;1.60;99.90;;;-146.41;100.00;57768.22;4998655;28;20153;-72
2022/04/09 00:52:55;;;;;;;10.38;7.38;;;1.60;99.90;;;-146.41;100.00;57768.22;4999301;28;20164;-71
2022/04/09 00:58:16;;;;;;;9.60;6.85;;;1.60;99.90;;;-146.41;100.00;57768.22;4999613;28;20125;-71
2022/04/09 01:00:43;;;;;;;9.52;6.90;;;1.60;99.90;;;-146.41;100.00;57768.22;4998722;28;20074;-71
2022/04/09 01:03:18;;;;;;;9.93;7.03;;;1.60;99.90;;;-146.41;100.00;57768.22;5005533;28;20073;-72
2022/04/09 01:05:48;;;;;;;10.52;7.43;;;1.60;99.90;;;-146.41;100.00;57768.22;4996957;28;20361;-72
2022/04/09 01:08:16;;;;;;;9.27;7.05;;;1.50;99.90;;;-146.41;100.00;57768.22;4999200;28;20038;-71
2022/04/09 01:10:52;;;;;;;10.95;7.30;;;1.50;99.90;;;-146.41;100.00;57768.22;5002129;28;20141;-71
2022/04/09 01:13:20;;;;;;;13.35;8.80;;;1.40;99.90;;;-146.41;100.00;57768.22;5002348;28;20046;-73
2022/04/09 01:15:47;;;;;;;11.98;8.98;;;1.40;99.90;;;-146.41;100.00;57768.22;4986406;28;20116;-70
2022/04/09 01:18:17;;;;;;;13.48;9.45;;;1.40;99.90;;;-146.41;100.00;57768.22;5002013;28;20046;-71
2022/04/09 01:20:45;;;;;;;14.52;10.55;;;1.30;99.90;;;-146.41;100.00;57768.22;5014993;28;20080;-71
2022/04/09 01:23:12;;;;;;;14.25;10.70;;;1.30;99.90;;;-146.41;100.00;57768.22;4998935;28;20133;-72
2022/04/09 01:25:41;;;;;;;15.88;11.38;;;1.30;99.90;;;-146.41;100.00;57768.22;4998172;28;20042;-71
2022/04/09 01:28:08;;;;;;;19.55;12.43;;;1.40;99.90;;;-146.41;100.00;57768.22;5026925;28;20069;-70
2022/04/09 01:30:36;;;;;;;15.60;12.15;;;1.40;99.90;;;-146.41;100.00;57768.22;4981871;28;20085;-72
2022/04/09 01:33:03;;;;;;;13.27;10.93;;;1.40;99.90;;;-146.41;100.00;57768.22;5005130;28;20428;-70
2022/04/09 01:35:31;;;;;;;18.90;13.30;;;1.40;99.90;;;-146.41;100.00;57768.22;5001604;28;20081;-71
2022/04/09 01:37:58;;;;;;;20.23;13.65;;;1.40;99.90;;;-146.41;100.00;57768.22;4999654;28;20081;-72
2022/04/09 01:40:25;;;;;;;17.27;12.88;;;1.40;99.90;;;-146.41;100.00;57768.22;4998605;28;20050;-71
2022/04/09 01:42:52;;;;;;;18.13;13.48;;;1.40;99.90;;;-146.41;100.00;57768.22;5001715;28;20085;-70
2022/04/09 01:45:19;;;;;;;20.05;14.50;;;1.40;99.90;;;-146.41;100.00;57768.22;4998778;28;20088;-70
2022/04/09 01:47:46;;;;;;;21.13;14.57;;;1.40;99.90;;;-146.41;100.00;57768.22;4998457;28;20483;-71
2022/04/09 01:50:13;;;;;;;18.75;14.00;;;1.50;99.90;;;-146.41;100.00;57768.22;4999501;28;20085;-70
2022/04/09 01:52:40;;;;;;;18.92;14.32;;;1.50;99.90;;;-146.41;100.00;57768.22;4998099;28;20120;-73
2022/04/09 01:55:08;;;;;;;18.45;13.35;;;1.60;99.90;;;-146.41;100.00;57768.22;4998824;28;20125;-71
2022/04/09 01:57:35;;;;;;;17.92;14.45;;;1.60;99.90;;;-146.41;100.00;57768.22;5004923;28;20372;-70
2022/04/09 02:00:07;;;;;;;23.73;13.82;;;1.60;99.90;;;-146.41;100.00;57768.22;4999264;28;20077;-70
2022/04/09 02:02:34;;;;;;;17.00;14.10;;;1.60;99.90;;;-146.41;100.00;57768.22;4992706;28;20149;-69
2022/04/09 02:05:03;;;;;;;19.13;15.30;;;1.60;99.90;;;-146.41;100.00;57768.22;4996249;28;20506;-70
2022/04/09 02:07:31;;;;;;;19.83;14.45;;;1.50;99.90;;;-146.41;100.00;57768.22;5029474;28;20136;-71
2022/04/09 02:09:58;;;;;;;18.55;14.20;;;1.40;99.90;;;-146.41;100.00;57768.22;5015166;28;20153;-70
2022/04/09 02:12:25;;;;;;;21.38;15.13;;;1.30;99.90;;;-146.41;100.00;57768.22;4995794;28;20172;-70
2022/04/09 02:14:52;;;;;;;19.95;16.10;;;1.30;99.90;;;-146.41;100.00;57768.22;5000395;28;20096;-70
2022/04/09 02:17:19;;;;;;;20.95;15.05;;;1.20;99.90;;;-146.41;100.00;57768.22;4998348;28;20081;-70
2022/04/09 02:19:46;;;;;;;19.73;14.70;;;1.20;99.90;;;-146.41;100.00;57768.22;4997680;28;20116;-73
2022/04/09 02:22:13;;;;;;;20.02;14.57;;;1.20;99.90;;;-146.41;100.00;57768.22;4997801;28;20100;-72
2022/04/09 02:24:40;;;;;;;20.80;15.82;;;1.20;99.90;;;-146.41;100.00;57768.22;4996103;28;20141;-70
2022/04/09 02:27:07;;;;;;;19.02;15.02;;;1.20;99.90;;;-146.41;100.00;57768.22;5002572;28;20457;-69
2022/04/09 02:29:34;;;;;;;23.83;16.58;;;1.20;99.90;;;-146.41;100.00;57768.22;4996422;28;20145;-70
2022/04/09 02:32:02;;;;;;;20.25;16.45;;;1.10;99.90;;;-146.41;100.00;57768.22;4998196;28;20043;-70
2022/04/09 02:34:30;;;;;;;19.52;13.82;;;1.10;99.90;;;-146.41;100.00;57768.22;5000281;28;20132;-70
2022/04/09 02:36:56;;;;;;;18.23;13.00;;;1.00;99.90;;;-146.41;100.00;57768.22;5003063;28;20125;-74
2022/04/09 02:39:24;;;;;;;21.00;14.65;;;0.90;99.90;;;-146.41;100.00;57768.22;5003194;28;20124;-73
2022/04/09 02:41:51;;;;;;;24.85;17.38;;;0.90;99.90;;;-146.41;100.00;57768.22;5002634;28;20061;-70
2022/04/09 02:44:19;;;;;;;20.35;15.05;;;0.80;99.90;;;-146.41;100.00;57768.22;5000238;28;20058;-70
2022/04/09 02:46:47;;;;;;;29.25;17.45;;;0.80;99.90;;;-146.41;100.00;57768.22;5002881;28;20050;-70
2022/04/09 02:49:16;;;;;;;20.65;15.38;;;0.80;99.90;;;-146.41;100.00;57768.22;5036679;28;20387;-73
2022/04/09 02:51:43;;;;;;;24.63;17.00;;;0.70;99.90;;;-146.41;100.00;57768.22;4998980;28;20089;-70
2022/04/09 02:54:15;;;;;;;28.48;19.08;;;0.70;99.90;;;-146.41;100.00;57768.22;4997608;28;20570;-70
2022/04/09 02:56:44;;;;;;;35.53;23.83;;;0.70;99.90;;;-146.41;100.00;57768.22;5020017;28;20116;-71
2022/04/09 02:59:12;;;;;;;29.83;20.83;;;0.80;99.90;;;-146.41;100.00;57768.22;4999892;28;20069;-72
2022/04/09 03:01:46;;;;;;;26.58;18.27;;;0.80;99.90;;;-146.41;100.00;57768.22;4998665;28;20054;-73
2022/04/09 03:04:15;;;;;;;38.20;23.52;;;0.80;99.90;;;-146.41;100.00;57768.22;4999987;28;20116;-70
2022/04/09 03:06:42;;;;;;;46.33;24.80;;;0.70;99.90;;;-146.41;100.00;57768.22;4985299;28;20136;-69
2022/04/09 03:09:09;;;;;;;38.70;25.65;;;0.70;99.90;;;-146.41;100.00;57768.22;4998611;28;20587;-70
2022/04/09 03:11:36;;;;;;;29.63;21.58;;;0.70;99.90;;;-146.41;100.00;57768.22;5000871;28;20149;-69
2022/04/09 03:14:03;;;;;;;28.52;20.83;;;0.70;99.90;;;-146.41;100.00;57768.22;5004649;28;20070;-69
2022/04/09 03:16:32;;;;;;;24.23;17.20;;;0.60;99.90;;;-146.41;100.00;57768.22;5003154;28;20085;-70
2022/04/09 03:18:59;;;;;;;30.33;19.67;;;0.60;99.90;;;-146.41;100.00;57768.22;5005190;28;20054;-69
2022/04/09 03:21:26;;;;;;;28.13;19.50;;;0.60;99.90;;;-146.41;100.00;57768.22;4999575;28;20042;-69
2022/04/09 03:23:53;;;;;;;27.23;19.75;;;0.60;99.90;;;-146.41;100.00;57768.22;4999003;28;20380;-70
2022/04/09 03:26:20;;;;;;;27.88;20.80;;;0.60;99.90;;;-146.41;100.00;57768.22;5004653;28;20046;-69
2022/04/09 03:28:47;;;;;;;26.05;19.00;;;0.60;99.90;;;-146.41;100.00;57768.22;4990843;28;20076;-69
2022/04/09 03:31:14;;;;;;;30.48;20.85;;;0.70;99.90;;;-146.41;100.00;57768.22;5003449;28;20587;-68
2022/04/09 03:33:42;;;;;;;26.55;19.67;;;0.70;99.90;;;-146.41;100.00;57768.22;5002832;28;20539;-69
2022/04/09 03:36:09;;;;;;;30.65;21.42;;;0.70;99.90;;;-146.41;100.00;57768.22;5029110;28;20048;-72
2022/04/09 03:38:36;;;;;;;26.98;18.30;;;0.80;99.90;;;-146.41;100.00;57768.22;5013141;28;20133;-72
2022/04/09 03:41:03;;;;;;;28.58;20.10;;;0.70;99.90;;;-146.41;100.00;57768.22;4999728;28;20093;-73
2022/04/09 03:43:30;;;;;;;26.52;19.75;;;0.80;99.90;;;-146.41;100.00;57768.22;5001490;28;20066;-72
2022/04/09 03:45:57;;;;;;;28.25;19.77;;;0.80;99.90;;;-146.41;100.00;57768.22;5003517;28;20054;-70
2022/04/09 03:48:24;;;;;;;26.38;18.42;;;0.80;99.90;;;-146.41;100.00;57768.22;4999278;28;20078;-70
2022/04/09 03:50:51;;;;;;;29.83;20.20;;;0.70;99.90;;;-146.41;100.00;57768.22;4998126;28;20078;-73
2022/04/09 03:53:21;;;;;;;26.15;19.20;;;0.70;99.90;;;-146.41;100.00;57768.22;4997682;28;20131;-70
2022/04/09 03:55:49;;;;;;;31.10;20.85;;;0.70;99.90;;;-146.41;100.00;57768.22;5002515;28;21854;-73
2022/04/09 03:58:17;;;;;;;29.17;19.67;;;0.70;99.90;;;-146.41;100.00;57768.22;4998966;28;20141;-73
2022/04/09 04:00:45;;;;;;;22.58;17.42;;;0.60;99.90;;;-146.41;100.00;57768.22;5013341;28;20159;-72
2022/04/09 04:03:12;;;;;;;27.90;19.95;;;0.60;99.90;;;-146.41;100.00;57768.22;5030794;28;20049;-72
2022/04/09 04:05:40;;;;;;;36.70;25.20;;;0.60;99.90;;;-146.41;100.00;57768.22;4998270;28;20053;-73
2022/04/09 04:08:08;;;;;;;40.42;27.95;;;0.60;99.90;;;-146.41;100.00;57768.22;5000007;28;20477;-73
2022/04/09 04:10:37;;;;;;;45.63;26.95;;;0.60;99.90;;;-146.41;100.00;57768.22;4997149;28;20053;-72
2022/04/09 04:13:07;;;;;;;31.83;22.05;;;0.60;99.90;;;-146.41;100.00;57768.22;4997704;28;20050;-72
2022/04/09 04:15:35;;;;;;;30.35;20.88;;;0.60;99.90;;;-146.41;100.00;57768.22;5014080;28;20377;-71
2022/04/09 04:18:03;;;;;;;27.70;18.90;;;0.60;99.90;;;-146.41;100.00;57768.22;5001058;28;20072;-73
2022/04/09 04:20:30;;;;;;;36.13;23.23;;;0.60;99.90;;;-146.41;100.00;57768.22;5030776;28;20046;-73
2022/04/09 04:22:58;;;;;;;52.20;28.85;;;0.60;99.90;;;-146.41;100.00;57768.22;4997206;28;20568;-73
2022/04/09 04:25:26;;;;;;;50.90;27.77;;;0.60;99.90;;;-146.41;100.00;57768.22;5000413;28;20056;-73
2022/04/09 04:27:54;;;;;;;38.33;24.48;;;0.70;99.90;;;-146.41;100.00;57768.22;4998273;28;20050;-73
2022/04/09 04:30:21;;;;;;;35.38;22.77;;;0.70;99.90;;;-146.41;100.00;57768.22;4999952;28;20053;-72
2022/04/09 04:32:48;;;;;;;55.95;31.35;;;0.70;99.90;;;-146.41;100.00;57768.22;5004294;28;20085;-71
2022/04/09 04:35:14;;;;;;;47.05;26.23;;;0.80;99.90;;;-146.41;100.00;57768.22;4996738;28;20126;-70
2022/04/09 04:37:44;;;;;;;48.97;28.95;;;0.90;99.90;;;-146.41;100.00;57768.22;5000484;28;20125;-70
2022/04/09 04:40:13;;;;;;;46.35;28.63;;;0.90;99.90;;;-146.41;100.00;57768.22;5030969;28;20141;-73
2022/04/09 04:42:40;;;;;;;44.97;27.58;;;0.90;99.90;;;-146.41;100.00;57768.22;5004838;28;20688;-71
2022/04/09 04:45:10;;;;;;;45.25;27.05;;;0.90;99.90;;;-146.41;100.00;57768.22;4998500;28;20144;-70
2022/04/09 04:47:47;;;;;;;56.42;34.40;;;1.00;99.90;;;-146.41;100.00;57768.22;4999778;28;20105;-68
2022/04/09 04:50:17;;;;;;;45.90;29.48;;;1.00;99.90;;;-146.41;100.00;57768.22;4997165;28;20050;-71
2022/04/09 04:52:44;;;;;;;64.20;35.28;;;1.00;99.90;;;-146.41;100.00;57768.22;5028521;28;20149;-74
2022/04/09 04:55:17;;;;;;;54.97;33.63;;;1.00;99.90;;;-146.41;100.00;57768.22;5002131;28;20073;-71
2022/04/09 04:57:47;;;;;;;51.55;32.55;;;1.00;99.90;;;-146.41;100.00;57768.22;5001906;28;20129;-71
2022/04/09 05:00:20;;;;;;;47.58;26.48;;;1.00;99.90;;;-146.41;100.00;57768.22;5031327;28;20070;-72
2022/04/09 05:02:48;;;;;;;37.78;25.13;;;1.00;99.90;;;-146.41;100.00;57768.22;5032671;28;20153;-70
2022/04/09 05:05:15;;;;;;;41.55;26.05;;;1.00;99.90;;;-146.41;100.00;57768.22;5026372;28;20481;-71
2022/04/09 05:07:49;;;;;;;41.15;26.92;;;1.00;99.90;;;-146.41;100.00;57768.22;5000387;28;20085;-70
2022/04/09 05:10:18;;;;;;;47.45;28.40;;;1.00;99.90;;;-146.41;100.00;57768.22;4996486;28;20125;-70
2022/04/09 05:12:46;;;;;;;45.67;28.48;;;1.00;99.90;;;-146.41;100.00;57768.22;4996790;28;20129;-71
2022/04/09 05:15:16;;;;;;;38.63;26.45;;;1.10;99.90;;;-146.41;100.00;57768.22;4998956;28;20064;-70
2022/04/09 05:17:44;;;;;;;41.67;26.48;;;1.10;99.90;;;-146.41;100.00;57768.22;4981586;28;20133;-70
2022/04/09 05:20:15;;;;;;;50.30;30.83;;;1.20;99.90;;;-146.41;100.00;57768.22;4995706;28;20456;-72
2022/04/09 05:22:46;;;;;;;42.03;28.27;;;1.20;99.90;;;-146.41;100.00;57768.22;4979540;28;20108;-69
2022/04/09 05:25:21;;;;;;;50.70;31.00;;;1.20;99.90;;;-146.41;100.00;57768.22;4997586;28;20049;-72
2022/04/09 05:27:51;;;;;;;41.85;28.23;;;1.30;99.90;;;-146.41;100.00;57768.22;4997550;28;20054;-70
2022/04/09 05:30:19;;;;;;;43.10;28.30;;;1.30;99.90;;;-146.41;100.00;57768.22;4993006;28;20551;-70
2022/04/09 05:32:46;;;;;;;42.65;29.13;;;1.30;99.90;;;-146.41;100.00;57768.22;5000774;28;20061;-71
2022/04/09 05:35:13;;;;;;;41.75;29.77;;;1.40;99.90;;;-146.41;100.00;57768.22;4999203;28;20049;-70
2022/04/09 05:37:48;;;;;;;37.88;26.10;;;1.50;99.90;;;-146.41;100.00;57768.22;4997931;28;20041;-71
2022/04/09 05:40:16;;;;;;;40.05;26.75;;;1.50;99.90;;;-146.41;100.00;57768.22;4998718;28;20043;-71
2022/04/09 05:42:43;;;;;;;36.47;25.80;;;1.50;99.90;;;-146.41;100.00;57768.22;5017840;28;20088;-70
2022/04/09 05:45:12;;;;;;;32.38;23.20;;;1.60;99.90;;;-146.41;100.00;57768.22;4995888;28;20456;-70
2022/04/09 05:47:44;;;;;;;43.33;27.00;;;1.60;99.90;;;-146.41;100.00;57768.22;4998807;28;20138;-70
2022/04/09 05:50:12;;;;;;;40.13;23.50;;;1.70;99.90;;;-146.41;100.00;57768.22;4996965;28;20046;-70
2022/04/09 05:52:40;;;;;;;35.80;24.40;;;1.70;99.90;;;-146.41;100.00;57768.22;4998138;28;20069;-72
2022/04/09 05:55:08;;;;;;;34.00;22.73;;;1.70;99.90;;;-146.41;100.00;57768.22;5000806;28;20124;-71
2022/04/09 05:57:35;;;;;;;37.35;24.95;;;1.80;99.90;;;-146.41;100.00;57768.22;4995215;28;20046;-69
2022/04/09 06:00:06;;;;;;;32.03;23.35;;;1.80;99.90;;;-146.41;100.00;57768.22;4999864;28;20138;-71
2022/04/09 06:02:34;;;;;;;38.20;25.90;;;1.80;99.90;;;-146.41;100.00;57768.22;4992955;28;20053;-71
2022/04/09 06:05:01;;;;;;;45.45;28.52;;;1.90;99.90;;;-146.41;100.00;57768.22;4989384;28;20137;-70
2022/04/09 06:07:28;;;;;;;49.55;30.17;;;1.90;99.90;;;-146.41;100.00;57768.22;4999573;28;20053;-71
2022/04/09 06:09:55;;;;;;;43.55;28.60;;;1.90;99.90;;;-146.41;100.00;57768.22;4998434;28;20081;-72
2022/04/09 06:12:22;;;;;;;37.88;24.58;;;2.00;99.90;;;-146.41;100.00;57768.22;5003498;28;20061;-72
2022/04/09 06:14:50;;;;;;;38.72;25.05;;;2.20;99.90;;;-146.41;100.00;57768.22;5003270;28;20046;-70
2022/04/09 06:17:17;;;;;;;29.90;20.95;;;2.40;99.90;;;-146.41;100.00;57768.22;5006061;28;20043;-71
2022/04/09 06:19:44;;;;;;;38.05;25.15;;;2.60;99.90;;;-146.41;100.00;57768.22;5000577;28;20451;-70
2022/04/09 06:22:11;;;;;;;31.70;20.50;;;2.70;99.90;;;-146.41;100.00;57768.22;5004235;28;20084;-71
2022/04/09 06:24:38;;;;;;;27.27;20.02;;;2.70;99.90;;;-146.41;100.00;57768.22;4998976;28;20081;-71
2022/04/09 06:27:05;;;;;;;28.88;20.33;;;2.70;99.90;;;-146.41;100.00;57768.22;5002540;28;20205;-71
2022/04/09 06:29:32;;;;;;;34.85;18.00;;;2.80;99.90;;;-146.41;100.00;57768.22;5005315;28;20078;-70
2022/04/09 06:31:59;;;;;;;33.92;18.30;;;2.80;99.90;;;-146.41;100.00;57768.22;4998718;28;20127;-72
2022/04/09 06:34:26;;;;;;;28.83;16.98;;;2.80;99.90;;;-146.41;100.00;57768.22;5001388;28;20052;-72
2022/04/09 06:36:53;;;;;;;32.08;17.55;;;2.90;99.90;;;-146.41;100.00;57768.22;5006885;28;20101;-71
2022/04/09 06:39:21;;;;;;;29.90;16.10;;;3.00;99.90;;;-146.41;100.00;57768.22;4999150;28;20054;-70
2022/04/09 06:41:49;;;;;;;30.52;16.92;;;3.10;99.90;;;-146.41;100.00;57768.22;4994254;28;20480;-72
2022/04/09 06:44:17;;;;;;;27.88;15.10;;;3.20;99.90;;;-146.41;100.00;57768.22;5007087;28;20049;-69
2022/04/09 06:46:46;;;;;;;35.97;18.70;;;3.40;99.90;;;-146.41;100.00;57768.22;4999066;28;20129;-72
2022/04/09 06:49:14;;;;;;;27.55;15.60;;;3.50;99.90;;;-146.41;100.00;57768.22;5000785;28;20058;-72
2022/04/09 06:51:40;;;;;;;23.40;15.00;;;3.70;99.90;;;-146.41;100.00;57768.22;5001557;28;20088;-72
2022/04/09 06:54:09;;;;;;;26.58;15.68;;;3.80;99.90;;;-146.41;100.00;57768.22;5030916;28;20129;-71
2022/04/09 06:56:39;;;;;;;28.88;15.13;;;3.80;99.90;;;-146.41;100.00;57768.22;5003847;28;20060;-72
2022/04/09 06:59:06;;;;;;;25.65;15.20;;;3.80;99.90;;;-146.41;100.00;57768.22;5031649;28;20042;-72
2022/04/09 07:01:33;;;;;;;27.95;15.57;;;3.90;99.90;;;-146.41;100.00;57768.22;5002519;28;20045;-72
2022/04/09 07:04:00;;;;;;;20.40;13.27;;;4.10;99.90;;;-146.41;100.00;57768.22;5006721;28;20052;-71
2022/04/09 07:06:30;;;;;;;23.33;13.50;;;4.20;99.90;;;-146.41;100.00;57768.22;5004697;28;20108;-71
2022/04/09 07:08:57;;;;;;;20.33;12.80;;;4.20;99.90;;;-146.41;100.00;57768.22;5001875;28;20046;-71
2022/04/09 07:11:24;;;;;;;24.25;11.45;;;4.30;99.90;;;-146.41;100.00;57768.22;5002401;28;20133;-70
2022/04/09 07:13:51;;;;;;;19.83;10.85;;;4.40;99.90;;;-146.41;100.00;57768.22;5004812;28;20149;-70
2022/04/09 07:16:18;;;;;;;27.17;13.02;;;4.50;99.90;;;-146.41;100.00;57768.22;5004714;28;20134;-70
2022/04/09 07:18:45;;;;;;;22.65;13.00;;;4.50;99.90;;;-146.41;100.00;57768.22;5001637;28;20458;-69
2022/04/09 07:21:12;;;;;;;27.60;16.23;;;4.30;99.90;;;-146.41;100.00;57768.22;5004656;28;20050;-71
2022/04/09 07:23:39;;;;;;;33.85;17.02;;;4.20;99.90;;;-146.41;100.00;57768.22;5004296;28;20069;-70
2022/04/09 07:26:06;;;;;;;33.08;15.38;;;4.10;99.90;;;-146.41;100.00;57768.22;4997971;28;20152;-70
2022/04/09 07:28:33;;;;;;;29.00;15.05;;;4.20;99.90;;;-146.41;100.00;57768.22;5000090;28;20050;-71
2022/04/09 07:31:00;;;;;;;22.13;13.32;;;4.10;99.90;;;-146.41;100.00;57768.22;4999430;28;20092;-70
2022/04/09 07:33:27;;;;;;;26.92;14.40;;;4.00;99.90;;;-146.41;100.00;57768.22;4998718;28;20064;-71
2022/04/09 07:35:56;;;;;;;36.10;14.68;;;3.90;99.90;;;-146.41;100.00;57768.22;4999954;28;20057;-70
2022/04/09 07:38:23;;;;;;;25.75;14.60;;;3.90;99.90;;;-146.41;100.00;57768.22;5001178;28;20160;-69
2022/04/09 07:40:50;;;;;;;27.33;14.85;;;3.90;99.90;;;-146.41;100.00;57768.22;5001253;28;20415;-69
2022/04/09 07:43:18;;;;;;;25.52;13.55;;;4.00;99.90;;;-146.41;100.00;57768.22;5000481;28;20045;-69
2022/04/09 07:45:46;;;;;;;25.02;13.98;;;4.10;99.90;;;-146.41;100.00;57768.22;5000911;28;20203;-69
2022/04/09 07:48:13;;;;;;;25.05;13.85;;;4.10;99.90;;;-146.41;100.00;57768.22;4997822;28;20146;-69
2022/04/09 07:50:40;;;;;;;32.60;16.00;;;4.20;99.90;;;-146.41;100.00;57768.22;5004855;28;20093;-69
2022/04/09 07:53:09;;;;;;;22.85;14.65;;;4.30;99.90;;;-146.41;100.00;57768.22;4999471;28;20050;-68
2022/04/09 07:55:36;;;;;;;22.85;13.90;;;4.50;99.90;;;-146.41;100.00;57768.22;5000729;28;20116;-68
2022/04/09 07:58:04;;;;;;;26.60;15.35;;;4.70;99.90;;;-146.41;100.00;57768.22;4998394;28;20053;-69
2022/04/09 08:00:33;;;;;;;23.30;11.32;;;4.90;99.90;;;-146.41;100.00;57768.22;4997719;28;20058;-69
2022/04/09 08:03:01;;;;;;;20.48;11.50;;;4.90;99.90;;;-146.41;100.00;57768.22;4995463;28;20389;-67
2022/04/09 08:05:28;;;;;;;23.98;11.18;;;4.70;99.90;;;-146.41;100.00;57768.22;5000094;28;20057;-68
2022/04/09 08:07:57;;;;;;;20.90;10.45;;;4.70;99.90;;;-146.41;100.00;57768.22;4996106;28;20061;-69
2022/04/09 08:10:24;;;;;;;22.95;11.00;;;4.70;99.90;;;-146.41;100.00;57768.22;4992378;28;20056;-70
2022/04/09 08:12:53;;;;;;;21.10;10.13;;;4.70;99.90;;;-146.41;100.00;57768.22;4999152;28;20503;-69
2022/04/09 08:15:21;;;;;;;24.80;11.93;;;4.60;99.90;;;-146.41;100.00;57768.22;5000027;28;20042;-69
2022/04/09 08:17:49;;;;;;;15.32;9.23;;;4.70;99.90;;;-146.41;100.00;57768.22;5000914;28;20053;-69
2022/04/09 08:20:20;;;;;;;23.25;10.02;;;4.70;99.90;;;-146.41;100.00;57768.22;4997833;28;20559;-68
2022/04/09 08:22:49;;;;;;;22.65;10.38;;;4.80;99.90;;;-146.41;100.00;57768.22;5014956;28;20168;-69
2022/04/09 08:25:17;;;;;;;20.95;11.35;;;5.10;99.90;;;-146.41;100.00;57768.22;5000212;28;20420;-70
2022/04/09 08:27:45;;;;;;;25.52;11.13;;;5.20;99.90;;;-146.41;100.00;57768.22;4998082;28;20049;-70
2022/04/09 08:30:14;;;;;;;26.73;13.27;;;5.30;99.90;;;-146.41;100.00;57768.22;4983904;28;20148;-70
2022/04/09 08:32:41;;;;;;;20.35;11.60;;;5.50;99.90;;;-146.41;100.00;57768.22;5004000;28;20650;-70
2022/04/09 08:35:08;;;;;;;22.77;12.45;;;5.80;99.90;;;-146.41;100.00;57768.22;4998733;28;20133;-70
2022/04/09 08:37:35;;;;;;;38.78;22.83;;;6.10;99.90;;;-146.41;100.00;57768.22;5003916;28;20057;-68
2022/04/09 08:40:04;;;;;;;21.85;9.20;;;6.30;99.90;;;-146.41;100.00;57768.22;5003171;28;20050;-70
2022/04/09 08:42:32;;;;;;;19.92;10.07;;;6.40;99.90;;;-146.41;100.00;57768.22;5000593;28;20138;-70
2022/04/09 08:45:00;;;;;;;22.60;10.63;;;6.50;99.90;;;-146.41;100.00;57768.22;5002626;28;20122;-70
2022/04/09 08:47:28;;;;;;;21.20;11.52;;;6.40;99.90;;;-146.41;100.00;57768.22;5002524;28;20051;-70
2022/04/09 08:49:56;;;;;;;22.33;10.60;;;6.30;99.90;;;-146.41;100.00;57768.22;4985280;28;20134;-69
2022/04/09 08:52:24;;;;;;;22.40;7.95;;;6.50;99.90;;;-146.41;100.00;57768.22;5000026;28;20081;-70
2022/04/09 08:54:51;;;;;;;20.25;7.22;;;6.80;99.90;;;-146.41;100.00;57768.22;5001555;28;20476;-71
2022/04/09 08:57:18;;;;;;;19.00;8.10;;;7.10;99.90;;;-146.41;100.00;57768.22;5003192;28;20411;-71
2022/04/09 08:59:45;;;;;;;15.07;7.22;;;7.00;99.90;;;-146.41;100.00;57768.22;4996888;28;20073;-70
2022/04/09 09:02:12;;;;;;;20.42;8.48;;;6.70;99.90;;;-146.41;100.00;57768.22;5001074;28;20127;-70
2022/04/09 09:04:39;;;;;;;24.58;11.07;;;6.40;99.90;;;-146.41;100.00;57768.22;4998279;28;20064;-71
2022/04/09 09:07:21;;;;;;;24.63;10.55;;;6.30;99.90;;;-146.41;100.00;57768.22;5004075;28;20088;-70
2022/04/09 09:09:51;;;;;;;30.23;9.52;;;6.10;99.90;;;-146.41;100.00;57768.22;5002646;28;20058;-70
2022/04/09 09:12:32;;;;;;;25.88;10.57;;;6.00;99.90;;;-146.41;100.00;57768.22;5000365;28;20068;-71
2022/04/09 09:15:04;;;;;;;19.70;9.38;;;6.30;99.90;;;-146.41;100.00;57768.22;4988280;28;20053;-71
2022/04/09 09:17:33;;;;;;;18.25;7.93;;;6.50;99.90;;;-146.41;100.00;57768.22;4999687;28;20484;-71
2022/04/09 09:20:00;;;;;;;23.60;9.27;;;6.70;99.90;;;-146.41;100.00;57768.22;5000343;28;20436;-71
2022/04/09 09:22:42;;;;;;;19.30;9.05;;;6.70;99.90;;;-146.41;100.00;57768.22;5000870;28;20046;-71
2022/04/09 09:25:13;;;;;;;20.52;8.15;;;7.00;99.90;;;-146.41;100.00;57768.22;4996680;28;20050;-71
2022/04/09 09:27:40;;;;;;;15.52;6.57;;;7.20;99.90;;;-146.41;100.00;57768.22;4998026;28;20041;-72
2022/04/09 09:30:11;;;;;;;18.90;6.15;;;7.60;99.90;;;-146.41;100.00;57768.22;4998461;28;20053;-71
2022/04/09 09:32:41;;;;;;;18.77;6.35;;;7.70;99.90;;;-146.41;100.00;57768.22;5002186;28;20475;-73
2022/04/09 09:35:12;;;;;;;18.15;6.82;;;7.80;99.90;;;-146.41;100.00;57768.22;5005618;28;20469;-70
2022/04/09 09:37:39;;;;;;;18.98;6.70;;;7.80;99.90;;;-146.41;100.00;57768.22;5002253;28;20496;-70
2022/04/09 09:40:07;;;;;;;19.40;6.22;;;7.50;99.90;;;-146.41;100.00;57768.22;4994066;28;20523;-72
2022/04/09 09:42:35;;;;;;;16.48;7.05;;;7.50;99.90;;;-146.41;100.00;57768.22;4993175;28;20475;-70
2022/04/09 09:45:05;;;;;;;15.88;6.70;;;7.70;99.90;;;-146.41;100.00;57768.22;4992031;28;20050;-70
2022/04/09 09:47:32;;;;;;;18.98;5.78;;;7.70;99.90;;;-146.41;100.00;57768.22;4994855;28;20054;-70
2022/04/09 09:49:59;;;;;;;21.30;6.53;;;7.50;99.90;;;-146.41;100.00;57768.22;4997931;28;20133;-71
2022/04/09 09:52:30;;;;;;;12.68;5.38;;;7.40;99.90;;;-146.41;100.00;57768.22;4999634;28;20061;-70
2022/04/09 09:55:10;;;;;;;21.17;6.82;;;7.50;99.90;;;-146.41;100.00;57768.22;4991979;28;20056;-70
2022/04/09 09:57:38;;;;;;;25.98;6.65;;;7.50;99.90;;;-146.41;100.00;57768.22;5001378;28;20077;-71
2022/04/09 10:00:12;;;;;;;18.58;5.85;;;7.40;99.90;;;-146.41;100.00;57768.22;5000763;28;20476;-71
2022/04/09 10:02:40;;;;;;;17.63;6.32;;;7.30;99.90;;;-146.41;100.00;57768.22;4998739;28;20429;-71